createdAt,value
2023-05-12T00:01:31.861Z,101381.09
2023-05-12T00:03:58.685Z,101353.34
2023-05-12T00:06:26.213Z,101378.44
2023-05-12T00:08:52.865Z,101291.56
2023-05-12T00:11:19.469Z,101370.44
2023-05-12T00:13:47.219Z,101366.84
2023-05-12T00:16:15.589Z,101373.97
2023-05-12T00:18:42.271Z,101352.50
2023-05-12T00:21:09.051Z,101367.78
2023-05-12T00:23:35.697Z,101346.34
2023-05-12T00:26:07.270Z,101287.28
2023-05-12T00:28:34.278Z,101272.09
2023-05-12T00:31:03.648Z,101373.13
2023-05-12T00:33:31.112Z,101366.00
2023-05-12T00:36:00.375Z,101337.28
2023-05-12T00:38:27.013Z,101361.47
2023-05-12T00:40:53.609Z,101342.72
2023-05-12T00:43:20.226Z,101327.41
2023-05-12T00:45:47.253Z,101338.97
2023-05-12T00:48:14.236Z,101334.34
2023-05-12T00:50:40.910Z,101342.47
2023-05-12T00:53:07.880Z,101337.03
2023-05-12T00:55:34.556Z,101354.00
2023-05-12T00:58:02.794Z,101354.00
2023-05-12T01:00:29.598Z,101311.00
2023-05-12T01:02:59.607Z,101320.00
2023-05-12T01:05:55.907Z,101342.31
2023-05-12T01:08:23.291Z,101289.50
2023-05-12T01:10:50.276Z,101319.91
2023-05-12T01:13:18.892Z,101322.66
2023-05-12T01:15:48.237Z,101336.94
2023-05-12T01:18:20.072Z,101320.88
2023-05-12T01:20:48.222Z,101243.09
2023-05-12T01:23:18.944Z,101299.44
2023-05-12T01:25:50.154Z,101319.97
2023-05-12T01:28:17.657Z,101113.31
2023-05-12T01:30:45.061Z,101293.09
2023-05-12T01:33:13.405Z,101317.22
2023-05-12T01:35:40.133Z,101305.66
2023-05-12T01:38:06.757Z,101228.78
2023-05-12T01:40:37.380Z,101301.25
2023-05-12T01:43:04.544Z,101297.66
2023-05-12T01:45:33.420Z,101308.44
2023-05-12T01:48:00.150Z,101312.88
2023-05-12T01:50:27.189Z,101287.84
2023-05-12T01:52:54.492Z,101308.47
2023-05-12T01:55:21.211Z,101303.06
2023-05-12T01:57:52.288Z,101287.88
2023-05-12T02:00:21.488Z,101298.56
2023-05-12T02:02:50.537Z,101308.50
2023-05-12T02:05:17.475Z,101312.00
2023-05-12T02:07:46.464Z,101310.22
2023-05-12T02:10:13.728Z,101307.56
2023-05-12T02:12:40.327Z,101285.16
2023-05-12T02:15:07.329Z,101288.78
2023-05-12T02:17:37.215Z,101288.78
2023-05-12T02:20:05.789Z,101289.72
2023-05-12T02:22:32.411Z,101233.41
2023-05-12T02:24:59.195Z,101213.78
2023-05-12T02:27:26.446Z,101212.88
2023-05-12T02:29:54.032Z,101283.59
2023-05-12T02:32:21.612Z,101287.22
2023-05-12T02:34:50.314Z,101265.84
2023-05-12T02:37:16.920Z,101269.47
2023-05-12T02:39:43.583Z,101195.31
2023-05-12T02:42:10.237Z,101272.34
2023-05-12T02:44:36.896Z,101259.84
2023-05-12T02:47:04.212Z,101284.06
2023-05-12T02:49:30.799Z,101244.78
2023-05-12T02:51:57.592Z,101233.19
2023-05-12T02:54:24.295Z,101257.28
2023-05-12T02:56:51.232Z,101255.63
2023-05-12T02:59:17.910Z,101268.09
2023-05-12T03:01:44.599Z,101253.78
2023-05-12T03:04:11.354Z,101259.19
2023-05-12T03:06:37.912Z,101178.78
2023-05-12T03:09:05.538Z,101261.00
2023-05-12T03:11:32.277Z,101221.63
2023-05-12T03:13:58.852Z,101272.69
2023-05-12T03:16:25.417Z,101258.38
2023-05-12T03:18:53.639Z,101274.44
2023-05-12T03:21:20.348Z,101255.63
2023-05-12T03:23:47.140Z,101277.09
2023-05-12T03:26:13.833Z,101235.16
2023-05-12T03:28:41.510Z,101281.66
2023-05-12T03:31:08.204Z,101275.50
2023-05-12T03:33:34.824Z,101248.75
2023-05-12T03:36:01.865Z,101264.88
2023-05-12T03:38:28.768Z,101260.41
2023-05-12T03:41:08.370Z,101209.47
2023-05-12T03:43:35.941Z,101236.25
2023-05-12T03:46:03.723Z,101270.34
2023-05-12T03:48:30.619Z,101241.81
2023-05-12T03:50:57.258Z,101251.63
2023-05-12T03:53:23.894Z,101232.03
2023-05-12T03:55:50.610Z,101230.22
2023-05-12T03:58:17.407Z,101236.53
2023-05-12T04:00:44.602Z,101249.03
2023-05-12T04:03:11.320Z,101235.66
2023-05-12T04:05:39.470Z,101247.38
2023-05-12T04:08:06.225Z,101225.06
2023-05-12T04:10:32.907Z,101233.13
2023-05-12T04:12:59.416Z,101243.00
2023-05-12T04:15:27.439Z,101167.88
2023-05-12T04:17:54.133Z,101265.34
2023-05-12T04:20:21.008Z,101167.91
2023-05-12T04:22:47.908Z,101248.41
2023-05-12T04:25:16.600Z,101238.59
2023-05-12T04:27:43.181Z,101260.09
2023-05-12T04:30:09.822Z,101256.50
2023-05-12T04:32:38.791Z,101239.53
2023-05-12T04:35:06.698Z,101242.25
2023-05-12T04:37:34.398Z,101252.97
2023-05-12T04:40:01.278Z,101250.31
2023-05-12T04:42:28.361Z,101241.44
2023-05-12T04:44:56.627Z,101266.44
2023-05-12T04:47:23.499Z,101250.44
2023-05-12T04:49:50.094Z,101249.50
2023-05-12T04:52:16.809Z,101257.56
2023-05-12T04:54:43.667Z,101266.50
2023-05-12T04:57:10.531Z,101269.22
2023-05-12T04:59:38.432Z,101224.53
2023-05-12T05:02:06.663Z,101265.66
2023-05-12T05:04:33.595Z,101285.25
2023-05-12T05:07:00.441Z,101278.16
2023-05-12T05:09:28.177Z,101302.22
2023-05-12T05:11:54.909Z,101292.47
2023-05-12T05:14:21.996Z,101315.75
2023-05-12T05:16:48.839Z,101271.06
2023-05-12T05:19:23.453Z,101296.13
2023-05-12T05:21:56.931Z,101316.72
2023-05-12T05:24:23.465Z,101314.03
2023-05-12T05:26:50.155Z,101240.81
2023-05-12T05:29:17.332Z,101315.84
2023-05-12T05:31:44.334Z,101317.69
2023-05-12T05:34:11.357Z,101317.75
2023-05-12T05:36:37.952Z,101325.81
2023-05-12T05:39:04.902Z,101255.28
2023-05-12T05:41:31.626Z,101323.22
2023-05-12T05:43:58.248Z,101346.47
2023-05-12T05:46:25.058Z,101334.00
2023-05-12T05:48:51.842Z,101343.00
2023-05-12T05:51:18.465Z,101339.44
2023-05-12T05:53:44.958Z,101347.50
2023-05-12T05:56:13.162Z,101363.63
2023-05-12T05:58:39.852Z,101360.09
2023-05-12T06:01:07.308Z,101343.13
2023-05-12T06:03:35.162Z,101371.72
2023-05-12T06:06:02.016Z,101371.72
2023-05-12T06:08:28.823Z,101374.38
2023-05-12T06:10:57.497Z,101365.47
2023-05-12T06:13:24.109Z,101304.69
2023-05-12T06:15:50.940Z,101380.63
2023-05-12T06:18:17.517Z,101396.72
2023-05-12T06:20:44.110Z,101399.41
2023-05-12T06:23:10.786Z,101409.28
2023-05-12T06:25:38.762Z,101322.66
2023-05-12T06:28:05.563Z,101406.69
2023-05-12T06:30:32.124Z,101405.81
2023-05-12T06:32:59.475Z,101421.91
2023-05-12T06:35:26.243Z,101329.03
2023-05-12T06:37:52.776Z,101372.81
2023-05-12T06:40:19.311Z,101404.97
2023-05-12T06:42:46.693Z,101423.72
2023-05-12T06:45:19.846Z,101425.53
2023-05-12T06:47:46.650Z,101420.16
2023-05-12T06:50:13.322Z,101439.78
2023-05-12T06:52:40.572Z,101430.72
2023-05-12T06:55:07.589Z,101456.59
2023-05-12T06:57:34.171Z,101435.91
2023-05-12T07:00:02.945Z,101435.66
2023-05-12T07:02:30.407Z,101448.91
2023-05-12T07:04:57.157Z,101454.22
2023-05-12T07:07:23.761Z,101430.00
2023-05-12T07:09:50.571Z,101455.75
2023-05-12T07:12:17.092Z,101454.84
2023-05-12T07:14:43.601Z,101277.44
2023-05-12T07:17:10.160Z,101436.00
2023-05-12T07:19:36.692Z,101415.16
2023-05-12T07:22:03.569Z,101466.72
2023-05-12T07:24:30.181Z,101375.34
2023-05-12T07:26:56.778Z,101432.41
2023-05-12T07:29:23.375Z,101387.78
2023-05-12T07:31:50.042Z,101464.50
2023-05-12T07:34:16.780Z,101457.28
2023-05-12T07:36:44.313Z,101467.59
2023-05-12T07:39:11.078Z,101453.00
2023-05-12T07:41:39.398Z,101461.25
2023-05-12T07:44:06.094Z,101456.66
2023-05-12T07:46:32.805Z,101465.47
2023-05-12T07:48:59.312Z,101434.91
2023-05-12T07:51:25.938Z,101448.66
2023-05-12T07:53:53.037Z,101467.75
2023-05-12T07:56:19.555Z,101471.19
2023-05-12T07:58:47.504Z,101478.72
2023-05-12T08:01:14.356Z,101475.28
2023-05-12T08:03:41.053Z,101473.69
2023-05-12T08:06:07.715Z,101492.09
2023-05-12T08:08:34.793Z,101396.91
2023-05-12T08:11:01.341Z,101468.56
2023-05-12T08:13:27.917Z,101430.50
2023-05-12T08:15:54.464Z,101460.13
2023-05-12T08:18:21.215Z,101495.00
2023-05-12T08:20:50.055Z,101511.03
2023-05-12T08:23:17.542Z,101494.84
2023-05-12T08:25:44.572Z,101498.25
2023-05-12T08:28:12.710Z,101446.41
2023-05-12T08:30:39.422Z,101508.56
2023-05-12T08:33:06.215Z,101497.63
2023-05-12T08:35:33.090Z,101499.31
2023-05-12T08:37:59.657Z,101511.84
2023-05-12T08:40:30.089Z,101504.44
2023-05-12T08:43:27.002Z,101511.06
2023-05-12T08:45:57.673Z,101508.81
2023-05-12T08:48:29.140Z,101500.84
2023-05-12T08:50:57.601Z,101451.84
2023-05-12T08:53:25.992Z,101504.44
2023-05-12T08:57:08.966Z,101519.69
2023-05-12T08:58:42.003Z,101524.47
2023-05-12T09:01:11.857Z,101507.78
2023-05-12T09:03:38.975Z,101468.00
2023-05-12T09:06:06.775Z,101536.25
2023-05-12T09:08:35.003Z,101528.53
2023-05-12T09:11:02.175Z,101539.38
2023-05-12T09:13:54.067Z,101552.88
2023-05-12T09:16:24.830Z,101489.63
2023-05-12T09:18:55.363Z,101377.34
2023-05-12T09:21:22.593Z,101496.88
2023-05-12T09:23:53.364Z,101547.91
2023-05-12T09:26:21.106Z,101546.19
2023-05-12T09:28:47.680Z,101531.84
2023-05-12T09:31:22.958Z,101480.63
2023-05-12T09:33:51.279Z,101542.63
2023-05-12T09:36:19.509Z,101519.84
2023-05-12T09:38:46.077Z,101538.25
2023-05-12T09:41:12.833Z,101533.56
2023-05-12T09:43:46.003Z,101531.75
2023-05-12T09:46:12.693Z,101538.34
2023-05-12T09:48:39.343Z,101520.16
2023-05-12T09:51:10.822Z,101543.84
2023-05-12T09:53:42.883Z,101488.66
2023-05-12T09:56:09.615Z,101542.16
2023-05-12T09:58:38.466Z,101556.22
2023-05-12T10:01:21.651Z,101548.63
2023-05-12T10:03:57.361Z,101552.59
2023-05-12T10:06:42.548Z,101553.47
2023-05-12T10:09:34.030Z,101541.03
2023-05-12T10:12:04.288Z,101558.25
2023-05-12T10:14:31.727Z,101557.00
2023-05-12T10:16:59.702Z,101540.91
2023-05-12T10:19:26.981Z,101539.53
2023-05-12T10:21:55.828Z,101551.94
2023-05-12T10:24:27.886Z,101546.38
2023-05-12T10:26:59.470Z,101499.69
2023-05-12T10:29:30.444Z,101545.97
2023-05-12T10:31:58.107Z,101553.16
2023-05-12T10:34:33.499Z,101547.81
2023-05-12T10:37:00.366Z,101535.63
2023-05-12T10:39:32.785Z,101544.84
2023-05-12T10:42:07.136Z,101480.25
2023-05-12T10:44:34.333Z,101539.75
2023-05-12T10:47:00.893Z,101537.09
2023-05-12T10:49:37.344Z,101549.09
2023-05-12T10:52:03.986Z,101532.84
2023-05-12T10:54:39.428Z,101485.53
2023-05-12T10:57:16.810Z,101502.44
2023-05-12T10:59:53.104Z,101547.72
2023-05-12T11:02:27.616Z,101552.41
2023-05-12T11:04:59.943Z,101467.25
2023-05-12T11:07:32.841Z,101550.94
2023-05-12T11:10:02.004Z,101538.03
2023-05-12T11:12:35.441Z,101503.03
2023-05-12T11:15:03.705Z,101535.72
2023-05-12T11:17:30.578Z,101535.78
2023-05-12T11:19:58.060Z,101492.81
2023-05-12T11:22:25.031Z,101556.47
2023-05-12T11:24:52.819Z,101552.06
2023-05-12T11:27:22.542Z,101555.13
2023-05-12T11:30:00.822Z,101506.34
2023-05-12T11:32:28.045Z,101513.16
2023-05-12T11:34:54.980Z,101558.03
2023-05-12T11:37:22.473Z,101559.31
2023-05-12T11:39:49.134Z,101520.69
2023-05-12T11:42:17.770Z,101565.38
2023-05-12T11:44:48.301Z,101520.66
2023-05-12T11:47:16.524Z,101555.69
2023-05-12T11:49:48.229Z,101571.03
2023-05-12T11:52:15.579Z,101574.91
2023-05-12T11:55:10.282Z,101570.13
2023-05-12T11:57:37.156Z,101576.94
2023-05-12T12:00:05.327Z,101571.13
2023-05-12T12:02:37.447Z,101574.59
2023-05-12T12:05:05.875Z,101573.00
2023-05-12T12:07:35.459Z,101567.50
2023-05-12T12:10:17.250Z,101577.09
2023-05-12T12:12:44.626Z,101413.38
2023-05-12T12:15:11.978Z,101583.84
2023-05-12T12:17:39.846Z,101577.09
2023-05-12T12:20:08.131Z,101541.34
2023-05-12T12:22:35.230Z,101579.25
2023-05-12T12:25:02.926Z,101585.25
2023-05-12T12:27:29.886Z,101594.31
2023-05-12T12:29:56.541Z,101591.03
2023-05-12T12:32:23.157Z,101580.41
2023-05-12T12:34:49.720Z,101582.44
2023-05-12T12:37:17.198Z,101584.53
2023-05-12T12:39:43.930Z,101514.78
2023-05-12T12:42:10.423Z,101582.97
2023-05-12T12:44:36.988Z,101588.69
2023-05-12T12:47:04.311Z,101589.69
2023-05-12T12:49:30.951Z,101590.19
2023-05-12T12:51:57.707Z,101593.81
2023-05-12T12:54:27.002Z,101576.78
2023-05-12T12:56:54.080Z,101568.28
2023-05-12T12:59:20.785Z,101581.84
2023-05-12T13:01:47.349Z,101574.78
2023-05-12T13:04:13.953Z,101523.84
2023-05-12T13:06:40.960Z,101561.88
2023-05-12T13:09:07.679Z,101580.97
2023-05-12T13:11:34.651Z,101589.41
2023-05-12T13:14:02.310Z,101525.56
2023-05-12T13:16:30.015Z,101534.41
2023-05-12T13:18:56.771Z,101565.22
2023-05-12T13:21:23.430Z,101582.78
2023-05-12T13:23:50.078Z,101583.50
2023-05-12T13:26:16.709Z,101568.75
2023-05-12T13:28:43.449Z,101593.75
2023-05-12T13:31:10.291Z,101524.66
2023-05-12T13:33:36.893Z,101585.34
2023-05-12T13:36:03.573Z,101522.25
2023-05-12T13:38:30.790Z,101582.59
2023-05-12T13:40:57.407Z,101574.50
2023-05-12T13:43:23.968Z,101583.00
2023-05-12T13:45:50.975Z,101573.09
2023-05-12T13:48:17.663Z,101514.53
2023-05-12T13:50:44.364Z,101567.31
2023-05-12T13:53:12.553Z,101574.19
2023-05-12T13:55:40.738Z,101572.06
2023-05-12T13:58:07.699Z,101574.22
2023-05-12T14:00:34.234Z,101572.75
2023-05-12T14:03:01.641Z,101585.31
2023-05-12T14:05:28.521Z,101578.19
2023-05-12T14:07:55.126Z,101565.16
2023-05-12T14:10:21.641Z,101568.69
2023-05-12T14:12:48.302Z,101570.84
2023-05-12T14:15:26.620Z,101576.09
2023-05-12T14:18:01.349Z,101498.47
2023-05-12T14:20:27.919Z,101558.41
2023-05-12T14:22:54.462Z,101438.38
2023-05-12T14:25:21.343Z,101560.00
2023-05-12T14:27:48.050Z,101492.09
2023-05-12T14:30:14.826Z,101492.44
2023-05-12T14:32:41.496Z,101542.63
2023-05-12T14:35:10.232Z,101532.69
2023-05-12T14:37:37.405Z,101542.91
2023-05-12T14:40:05.386Z,101536.19
2023-05-12T14:42:32.296Z,101535.88
2023-05-12T14:44:59.324Z,101544.97
2023-05-12T14:47:26.024Z,101554.81
2023-05-12T14:49:52.693Z,101543.13
2023-05-12T14:52:19.299Z,101543.97
2023-05-12T14:54:45.864Z,101543.00
2023-05-12T14:57:13.552Z,101548.19
2023-05-12T14:59:40.202Z,101534.50
2023-05-12T15:02:07.514Z,101532.06
2023-05-12T15:04:34.125Z,101534.63
2023-05-12T15:07:00.666Z,101537.78
2023-05-12T15:09:27.227Z,101539.69
2023-05-12T15:11:53.989Z,101507.25
2023-05-12T15:14:20.568Z,101518.91
2023-05-12T15:16:47.327Z,101522.31
2023-05-12T15:19:15.118Z,101526.88
2023-05-12T15:21:41.677Z,101512.81
2023-05-12T15:24:08.501Z,101545.16
2023-05-12T15:26:37.563Z,101566.16
2023-05-12T15:29:06.099Z,101576.09
2023-05-12T15:31:32.714Z,101626.22
2023-05-12T15:33:59.281Z,101622.78
2023-05-12T15:36:25.878Z,101628.53
2023-05-12T15:38:52.444Z,101633.75
2023-05-12T15:41:19.060Z,101649.94
2023-05-12T15:43:45.575Z,101590.41
2023-05-12T15:46:12.251Z,101608.59
2023-05-12T15:48:39.433Z,101558.66
2023-05-12T15:51:06.650Z,101519.38
2023-05-12T15:53:33.516Z,101628.47
2023-05-12T15:56:00.990Z,101613.25
2023-05-12T15:58:28.367Z,101633.81
2023-05-12T16:00:55.412Z,101544.31
2023-05-12T16:03:22.725Z,101616.81
2023-05-12T16:05:49.759Z,101619.50
2023-05-12T16:08:17.543Z,101539.91
2023-05-12T16:10:44.183Z,101632.94
2023-05-12T16:13:10.818Z,101618.63
2023-05-12T16:15:37.338Z,101623.97
2023-05-12T16:18:05.829Z,101628.44
2023-05-12T16:20:33.691Z,101605.16
2023-05-12T16:23:00.368Z,101622.16
2023-05-12T16:25:27.005Z,101543.44
2023-05-12T16:27:53.719Z,101622.09
2023-05-12T16:30:20.584Z,101552.38
2023-05-12T16:32:47.476Z,101621.22
2023-05-12T16:35:14.368Z,101597.06
2023-05-12T16:37:41.346Z,101615.81
2023-05-12T16:40:09.657Z,101616.72
2023-05-12T16:42:37.113Z,101612.22
2023-05-12T16:45:05.128Z,101598.81
2023-05-12T16:47:31.754Z,101630.09
2023-05-12T16:49:59.803Z,101605.00
2023-05-12T16:52:26.999Z,101625.56
2023-05-12T16:54:56.438Z,101564.81
2023-05-12T16:57:24.139Z,101561.28
2023-05-12T16:59:50.746Z,101553.28
2023-05-12T17:02:17.436Z,101609.59
2023-05-12T17:04:44.726Z,101603.38
2023-05-12T17:07:11.478Z,101604.25
2023-05-12T17:09:38.184Z,101591.75
2023-05-12T17:12:06.685Z,101632.00
2023-05-12T17:14:34.801Z,101647.22
2023-05-12T17:17:01.474Z,101632.94
2023-05-12T17:19:28.415Z,101636.50
2023-05-12T17:21:55.034Z,101650.81
2023-05-12T17:24:21.796Z,101604.28
2023-05-12T17:26:48.383Z,101645.41
2023-05-12T17:29:14.995Z,101657.94
2023-05-12T17:31:41.548Z,101660.63
2023-05-12T17:34:08.184Z,101649.00
2023-05-12T17:36:34.809Z,101664.22
2023-05-12T17:39:02.153Z,101672.28
2023-05-12T17:41:29.484Z,101657.97
2023-05-12T17:43:56.118Z,101644.56
2023-05-12T17:46:23.030Z,101650.81
2023-05-12T17:48:49.998Z,101672.28
2023-05-12T17:51:16.971Z,101664.22
2023-05-12T17:53:43.728Z,101595.38
2023-05-12T17:56:10.432Z,101674.06
2023-05-12T17:58:36.971Z,101674.06
2023-05-12T18:01:03.612Z,101678.53
2023-05-12T18:03:30.295Z,101663.34
2023-05-12T18:05:56.936Z,101666.03
2023-05-12T18:08:23.535Z,101615.00
2023-05-12T18:10:50.354Z,101668.72
2023-05-12T18:13:17.048Z,101547.06
2023-05-12T18:15:43.677Z,101662.41
2023-05-12T18:18:10.908Z,101550.59
2023-05-12T18:20:37.714Z,101676.63
2023-05-12T18:23:04.694Z,101647.16
2023-05-12T18:25:31.335Z,101665.06
2023-05-12T18:27:57.917Z,101589.94
2023-05-12T18:30:24.514Z,101677.63
2023-05-12T18:32:51.137Z,101659.75
2023-05-12T18:35:17.991Z,101615.91
2023-05-12T18:37:44.741Z,101661.53
2023-05-12T18:40:12.092Z,101716.13
2023-05-12T18:42:38.850Z,101699.13
2023-05-12T18:45:06.100Z,101674.06
2023-05-12T18:47:33.482Z,101652.56
2023-05-12T18:50:00.223Z,101680.28
2023-05-12T18:52:26.999Z,101562.97
2023-05-12T18:54:53.666Z,101669.50
2023-05-12T18:57:20.792Z,101695.44
2023-05-12T18:59:47.446Z,101682.81
2023-05-12T19:02:14.001Z,101679.25
2023-05-12T19:04:40.762Z,101666.66
2023-05-12T19:07:09.695Z,101688.13
2023-05-12T19:09:37.077Z,101664.81
2023-05-12T19:12:05.871Z,101679.09
2023-05-12T19:14:32.723Z,101707.69
2023-05-12T19:16:59.278Z,101709.38
2023-05-12T19:19:25.955Z,101707.47
2023-05-12T19:21:52.599Z,101675.09
2023-05-12T19:24:19.422Z,101724.25
2023-05-12T19:26:46.084Z,101725.03
2023-05-12T19:29:12.695Z,101638.91
2023-05-12T19:31:39.425Z,101718.59
2023-05-12T19:34:07.005Z,101727.50
2023-05-12T19:36:34.118Z,101701.34
2023-05-12T19:39:01.133Z,101720.13
2023-05-12T19:41:28.966Z,101721.88
2023-05-12T19:43:56.409Z,101703.00
2023-05-12T19:46:23.453Z,101737.19
2023-05-12T19:48:51.216Z,101734.53
2023-05-12T19:51:17.877Z,101735.50
2023-05-12T19:53:44.577Z,101734.66
2023-05-12T19:56:11.322Z,101701.56
2023-05-12T19:58:38.377Z,101782.38
2023-05-12T20:01:05.187Z,101758.28
2023-05-12T20:03:31.910Z,101763.91
2023-05-12T20:05:58.871Z,101735.28
2023-05-12T20:08:25.674Z,101754.19
2023-05-12T20:10:52.254Z,101734.50
2023-05-12T20:13:18.846Z,101734.53
2023-05-12T20:15:45.629Z,101761.41
2023-05-12T20:18:14.679Z,101738.13
2023-05-12T20:20:42.996Z,101652.13
2023-05-12T20:23:09.856Z,101743.53
2023-05-12T20:25:36.841Z,101691.50
2023-05-12T20:28:03.825Z,101709.41
2023-05-12T20:30:30.556Z,101742.56
2023-05-12T20:32:57.096Z,101738.91
2023-05-12T20:35:23.878Z,101733.47
2023-05-12T20:37:50.754Z,101696.66
2023-05-12T20:40:17.483Z,101750.34
2023-05-12T20:42:45.977Z,101755.59
2023-05-12T20:45:13.681Z,101783.38
2023-05-12T20:47:40.484Z,101737.63
2023-05-12T20:50:08.300Z,101784.28
2023-05-12T20:52:40.070Z,101790.53
2023-05-12T20:55:07.535Z,101639.84
2023-05-12T20:57:34.217Z,101771.69
2023-05-12T21:00:01.351Z,101765.38
2023-05-12T21:02:28.982Z,101761.78
2023-05-12T21:04:56.114Z,101777.84
2023-05-12T21:07:22.741Z,101784.13
2023-05-12T21:09:49.437Z,101666.53
2023-05-12T21:12:16.059Z,101752.53
2023-05-12T21:14:44.046Z,101799.97
2023-05-12T21:17:12.006Z,101774.88
2023-05-12T21:19:39.874Z,101767.63
2023-05-12T21:22:08.955Z,101760.38
2023-05-12T21:24:37.319Z,101716.28
2023-05-12T21:27:05.615Z,101712.63
2023-05-12T21:29:33.106Z,101800.47
2023-05-12T21:32:00.528Z,101777.13
2023-05-12T21:34:27.772Z,101702.59
2023-05-12T21:36:54.765Z,101763.56
2023-05-12T21:39:21.880Z,101778.81
2023-05-12T21:41:48.784Z,101789.47
2023-05-12T21:44:15.402Z,101787.59
2023-05-12T21:46:42.658Z,101809.06
2023-05-12T21:49:09.561Z,101769.53
2023-05-12T21:51:36.231Z,101759.66
2023-05-12T21:54:03.019Z,101803.56
2023-05-12T21:56:29.688Z,101712.88
2023-05-12T21:58:56.314Z,101807.97
2023-05-12T22:01:22.882Z,101772.94
2023-05-12T22:03:49.933Z,101814.16
2023-05-12T22:06:16.773Z,101791.81
2023-05-12T22:08:43.459Z,101812.38
2023-05-12T22:11:10.749Z,101798.06
2023-05-12T22:13:37.413Z,101813.28
2023-05-12T22:16:04.346Z,101812.31
2023-05-12T22:18:31.667Z,101811.38
2023-05-12T22:20:58.824Z,101759.41
2023-05-12T22:23:25.801Z,101779.19
2023-05-12T22:25:52.501Z,101816.09
2023-05-12T22:28:19.132Z,101727.31
2023-05-12T22:30:45.852Z,101809.97
2023-05-12T22:33:12.556Z,101792.97
2023-05-12T22:35:39.072Z,101822.63
2023-05-12T22:38:05.826Z,101728.53
2023-05-12T22:40:33.656Z,101768.03
2023-05-12T22:43:00.282Z,101832.75
2023-05-12T22:45:26.957Z,101832.84
2023-05-12T22:47:53.937Z,101836.44
2023-05-12T22:50:21.040Z,101836.38
2023-05-12T22:52:47.831Z,101823.78
2023-05-12T22:55:14.387Z,101818.50
2023-05-12T22:57:43.504Z,101823.75
2023-05-12T23:00:10.539Z,101754.63
2023-05-12T23:02:37.135Z,101819.22
2023-05-12T23:05:04.210Z,101825.50
2023-05-12T23:07:31.127Z,101816.50
2023-05-12T23:09:57.799Z,101823.56
2023-05-12T23:12:24.375Z,101792.13
2023-05-12T23:14:51.009Z,101802.81
2023-05-12T23:17:17.594Z,101816.28
2023-05-12T23:19:44.214Z,101813.63
2023-05-12T23:22:10.792Z,101820.78
2023-05-12T23:24:38.170Z,101722.97
2023-05-12T23:27:04.937Z,101798.31
2023-05-12T23:29:31.573Z,101821.63
2023-05-12T23:31:58.798Z,101811.78
2023-05-12T23:34:25.664Z,101785.75
2023-05-12T23:36:52.415Z,101792.06
2023-05-12T23:39:19.062Z,101822.53
2023-05-12T23:41:45.858Z,101824.31
2023-05-12T23:44:12.821Z,101799.22
2023-05-12T23:46:39.533Z,101818.91
2023-05-12T23:49:06.422Z,101818.06
2023-05-12T23:51:34.311Z,101808.28
2023-05-12T23:54:00.912Z,101645.88
2023-05-12T23:56:27.487Z,101811.97
2023-05-12T23:58:54.264Z,101822.75
